sensor_id;sensor_type;location;lat;lon;timestamp;P1;durP1;ratioP1;P2;durP2;ratioP2
50124;SDS011;36023;48.670;6.184;2023-06-10T00:00:46;2.30;;;1.60;;
50124;SDS011;36023;48.670;6.184;2023-06-10T00:03:11;1.55;;;0.98;;
50124;SDS011;36023;48.670;6.184;2023-06-10T00:05:38;2.42;;;1.13;;
50124;SDS011;36023;48.670;6.184;2023-06-10T00:08:06;1.83;;;1.17;;
50124;SDS011;36023;48.670;6.184;2023-06-10T00:10:36;4.05;;;1.63;;
50124;SDS011;36023;48.670;6.184;2023-06-10T00:13:04;3.30;;;1.30;;
50124;SDS011;36023;48.670;6.184;2023-06-10T00:15:33;4.15;;;1.55;;
50124;SDS011;36023;48.670;6.184;2023-06-10T00:18:02;2.30;;;1.23;;
50124;SDS011;36023;48.670;6.184;2023-06-10T00:20:28;2.40;;;1.52;;
50124;SDS011;36023;48.670;6.184;2023-06-10T00:22:58;2.22;;;1.30;;
50124;SDS011;36023;48.670;6.184;2023-06-10T00:25:26;1.70;;;1.10;;
50124;SDS011;36023;48.670;6.184;2023-06-10T00:27:52;1.95;;;1.50;;
50124;SDS011;36023;48.670;6.184;2023-06-10T00:30:18;1.60;;;1.20;;
50124;SDS011;36023;48.670;6.184;2023-06-10T00:32:45;2.80;;;1.38;;
50124;SDS011;36023;48.670;6.184;2023-06-10T00:35:11;3.00;;;1.35;;
50124;SDS011;36023;48.670;6.184;2023-06-10T00:37:38;2.00;;;1.25;;
50124;SDS011;36023;48.670;6.184;2023-06-10T00:40:03;1.92;;;1.20;;
50124;SDS011;36023;48.670;6.184;2023-06-10T00:42:32;2.28;;;1.27;;
50124;SDS011;36023;48.670;6.184;2023-06-10T00:44:57;1.42;;;1.20;;
50124;SDS011;36023;48.670;6.184;2023-06-10T00:47:24;1.60;;;1.25;;
50124;SDS011;36023;48.670;6.184;2023-06-10T00:49:51;1.83;;;1.30;;
50124;SDS011;36023;48.670;6.184;2023-06-10T00:52:17;2.05;;;1.60;;
50124;SDS011;36023;48.670;6.184;2023-06-10T00:54:45;1.50;;;1.10;;
50124;SDS011;36023;48.670;6.184;2023-06-10T00:57:11;2.55;;;1.48;;
50124;SDS011;36023;48.670;6.184;2023-06-10T00:59:39;3.13;;;1.23;;
50124;SDS011;36023;48.670;6.184;2023-06-10T01:02:08;2.70;;;1.67;;
50124;SDS011;36023;48.670;6.184;2023-06-10T01:04:34;1.83;;;1.35;;
50124;SDS011;36023;48.670;6.184;2023-06-10T01:10:17;1.73;;;1.25;;
50124;SDS011;36023;48.670;6.184;2023-06-10T01:15:21;2.03;;;1.17;;
50124;SDS011;36023;48.670;6.184;2023-06-10T01:17:57;1.85;;;1.20;;
50124;SDS011;36023;48.670;6.184;2023-06-10T01:20:31;1.83;;;1.10;;
50124;SDS011;36023;48.670;6.184;2023-06-10T01:22:58;2.15;;;1.17;;
50124;SDS011;36023;48.670;6.184;2023-06-10T01:25:26;2.17;;;1.52;;
50124;SDS011;36023;48.670;6.184;2023-06-10T01:28:12;2.05;;;1.10;;
50124;SDS011;36023;48.670;6.184;2023-06-10T01:33:12;2.20;;;1.40;;
50124;SDS011;36023;48.670;6.184;2023-06-10T01:35:42;2.28;;;1.30;;
50124;SDS011;36023;48.670;6.184;2023-06-10T01:38:08;3.92;;;1.55;;
50124;SDS011;36023;48.670;6.184;2023-06-10T01:40:37;2.55;;;1.50;;
50124;SDS011;36023;48.670;6.184;2023-06-10T01:43:04;2.85;;;1.50;;
50124;SDS011;36023;48.670;6.184;2023-06-10T01:45:30;2.42;;;1.40;;
50124;SDS011;36023;48.670;6.184;2023-06-10T01:47:56;2.10;;;1.38;;
50124;SDS011;36023;48.670;6.184;2023-06-10T01:50:21;1.88;;;1.20;;
50124;SDS011;36023;48.670;6.184;2023-06-10T01:52:47;4.00;;;1.60;;
50124;SDS011;36023;48.670;6.184;2023-06-10T01:55:13;2.20;;;1.42;;
50124;SDS011;36023;48.670;6.184;2023-06-10T01:57:39;2.35;;;1.20;;
50124;SDS011;36023;48.670;6.184;2023-06-10T02:00:05;2.78;;;1.25;;
50124;SDS011;36023;48.670;6.184;2023-06-10T02:02:40;1.92;;;1.17;;
50124;SDS011;36023;48.670;6.184;2023-06-10T02:05:06;3.88;;;1.23;;
50124;SDS011;36023;48.670;6.184;2023-06-10T02:07:32;1.63;;;1.30;;
50124;SDS011;36023;48.670;6.184;2023-06-10T02:09:57;2.35;;;1.40;;
50124;SDS011;36023;48.670;6.184;2023-06-10T02:12:25;2.13;;;1.67;;
50124;SDS011;36023;48.670;6.184;2023-06-10T02:14:51;3.13;;;1.45;;
50124;SDS011;36023;48.670;6.184;2023-06-10T02:17:17;2.03;;;1.45;;
50124;SDS011;36023;48.670;6.184;2023-06-10T02:19:42;1.83;;;1.13;;
50124;SDS011;36023;48.670;6.184;2023-06-10T02:22:09;4.57;;;1.92;;
50124;SDS011;36023;48.670;6.184;2023-06-10T02:24:38;2.30;;;1.42;;
50124;SDS011;36023;48.670;6.184;2023-06-10T02:27:04;1.55;;;1.10;;
50124;SDS011;36023;48.670;6.184;2023-06-10T02:29:33;2.28;;;1.70;;
50124;SDS011;36023;48.670;6.184;2023-06-10T02:32:01;5.63;;;1.98;;
50124;SDS011;36023;48.670;6.184;2023-06-10T02:34:29;1.90;;;1.30;;
50124;SDS011;36023;48.670;6.184;2023-06-10T02:36:55;2.38;;;1.67;;
50124;SDS011;36023;48.670;6.184;2023-06-10T02:39:21;3.00;;;1.58;;
50124;SDS011;36023;48.670;6.184;2023-06-10T02:41:49;1.67;;;1.25;;
50124;SDS011;36023;48.670;6.184;2023-06-10T02:44:17;2.63;;;1.50;;
50124;SDS011;36023;48.670;6.184;2023-06-10T02:46:44;2.50;;;1.63;;
50124;SDS011;36023;48.670;6.184;2023-06-10T02:49:11;2.63;;;1.60;;
50124;SDS011;36023;48.670;6.184;2023-06-10T02:51:37;2.08;;;1.40;;
50124;SDS011;36023;48.670;6.184;2023-06-10T02:54:03;2.42;;;1.50;;
50124;SDS011;36023;48.670;6.184;2023-06-10T02:56:30;1.92;;;1.60;;
50124;SDS011;36023;48.670;6.184;2023-06-10T02:58:59;2.08;;;1.30;;
50124;SDS011;36023;48.670;6.184;2023-06-10T03:01:27;2.50;;;1.40;;
50124;SDS011;36023;48.670;6.184;2023-06-10T03:04:00;2.53;;;2.00;;
50124;SDS011;36023;48.670;6.184;2023-06-10T03:06:26;1.77;;;1.48;;
50124;SDS011;36023;48.670;6.184;2023-06-10T03:08:57;4.03;;;1.50;;
50124;SDS011;36023;48.670;6.184;2023-06-10T03:11:22;2.95;;;1.50;;
50124;SDS011;36023;48.670;6.184;2023-06-10T03:13:49;2.50;;;1.55;;
50124;SDS011;36023;48.670;6.184;2023-06-10T03:16:17;5.63;;;1.65;;
50124;SDS011;36023;48.670;6.184;2023-06-10T03:18:44;3.50;;;1.75;;
50124;SDS011;36023;48.670;6.184;2023-06-10T03:21:12;3.05;;;1.75;;
50124;SDS011;36023;48.670;6.184;2023-06-10T03:23:40;3.88;;;1.80;;
50124;SDS011;36023;48.670;6.184;2023-06-10T03:26:06;2.78;;;1.38;;
50124;SDS011;36023;48.670;6.184;2023-06-10T03:28:33;2.90;;;1.65;;
50124;SDS011;36023;48.670;6.184;2023-06-10T03:30:59;2.50;;;1.58;;
50124;SDS011;36023;48.670;6.184;2023-06-10T03:33:28;2.22;;;1.58;;
50124;SDS011;36023;48.670;6.184;2023-06-10T03:35:54;4.68;;;1.38;;
50124;SDS011;36023;48.670;6.184;2023-06-10T03:38:19;2.55;;;1.42;;
50124;SDS011;36023;48.670;6.184;2023-06-10T03:40:46;2.20;;;1.63;;
50124;SDS011;36023;48.670;6.184;2023-06-10T03:43:13;2.75;;;1.70;;
50124;SDS011;36023;48.670;6.184;2023-06-10T03:45:40;2.17;;;1.40;;
50124;SDS011;36023;48.670;6.184;2023-06-10T03:48:07;2.85;;;1.60;;
50124;SDS011;36023;48.670;6.184;2023-06-10T03:50:43;1.95;;;1.38;;
50124;SDS011;36023;48.670;6.184;2023-06-10T03:53:09;4.68;;;1.30;;
50124;SDS011;36023;48.670;6.184;2023-06-10T03:55:36;3.08;;;1.42;;
50124;SDS011;36023;48.670;6.184;2023-06-10T03:58:03;2.42;;;1.65;;
50124;SDS011;36023;48.670;6.184;2023-06-10T04:00:29;2.63;;;1.80;;
50124;SDS011;36023;48.670;6.184;2023-06-10T04:02:55;3.25;;;1.80;;
50124;SDS011;36023;48.670;6.184;2023-06-10T04:05:34;2.15;;;1.33;;
50124;SDS011;36023;48.670;6.184;2023-06-10T04:08:00;4.43;;;1.58;;
50124;SDS011;36023;48.670;6.184;2023-06-10T04:10:27;3.03;;;1.42;;
50124;SDS011;36023;48.670;6.184;2023-06-10T04:12:53;2.65;;;1.15;;
50124;SDS011;36023;48.670;6.184;2023-06-10T04:15:20;4.93;;;1.70;;
50124;SDS011;36023;48.670;6.184;2023-06-10T04:17:46;2.38;;;1.30;;
50124;SDS011;36023;48.670;6.184;2023-06-10T04:20:15;1.75;;;1.15;;
50124;SDS011;36023;48.670;6.184;2023-06-10T04:22:44;2.85;;;1.45;;
50124;SDS011;36023;48.670;6.184;2023-06-10T04:25:10;4.35;;;1.90;;
50124;SDS011;36023;48.670;6.184;2023-06-10T04:27:36;2.85;;;1.42;;
50124;SDS011;36023;48.670;6.184;2023-06-10T04:30:03;2.72;;;1.77;;
50124;SDS011;36023;48.670;6.184;2023-06-10T04:32:30;2.40;;;1.63;;
50124;SDS011;36023;48.670;6.184;2023-06-10T04:34:56;4.32;;;1.73;;
50124;SDS011;36023;48.670;6.184;2023-06-10T04:37:21;2.25;;;1.70;;
50124;SDS011;36023;48.670;6.184;2023-06-10T04:39:47;2.17;;;1.30;;
50124;SDS011;36023;48.670;6.184;2023-06-10T04:42:13;2.97;;;1.50;;
50124;SDS011;36023;48.670;6.184;2023-06-10T04:44:39;5.85;;;1.55;;
50124;SDS011;36023;48.670;6.184;2023-06-10T04:47:06;2.25;;;1.33;;
50124;SDS011;36023;48.670;6.184;2023-06-10T04:49:33;3.40;;;1.48;;
50124;SDS011;36023;48.670;6.184;2023-06-10T04:51:59;1.52;;;1.20;;
50124;SDS011;36023;48.670;6.184;2023-06-10T04:54:25;1.98;;;1.20;;
50124;SDS011;36023;48.670;6.184;2023-06-10T04:56:51;2.75;;;1.30;;
50124;SDS011;36023;48.670;6.184;2023-06-10T04:59:17;2.75;;;1.58;;
50124;SDS011;36023;48.670;6.184;2023-06-10T05:01:42;2.40;;;1.50;;
50124;SDS011;36023;48.670;6.184;2023-06-10T05:04:08;2.40;;;1.58;;
50124;SDS011;36023;48.670;6.184;2023-06-10T05:06:34;4.68;;;1.70;;
50124;SDS011;36023;48.670;6.184;2023-06-10T05:09:01;2.70;;;1.80;;
50124;SDS011;36023;48.670;6.184;2023-06-10T05:11:26;1.95;;;1.30;;
50124;SDS011;36023;48.670;6.184;2023-06-10T05:13:52;2.53;;;1.63;;
50124;SDS011;36023;48.670;6.184;2023-06-10T05:16:17;2.55;;;1.58;;
50124;SDS011;36023;48.670;6.184;2023-06-10T05:18:43;2.13;;;1.58;;
50124;SDS011;36023;48.670;6.184;2023-06-10T05:21:10;6.93;;;1.60;;
50124;SDS011;36023;48.670;6.184;2023-06-10T05:23:35;1.90;;;1.17;;
50124;SDS011;36023;48.670;6.184;2023-06-10T05:26:02;2.33;;;1.52;;
50124;SDS011;36023;48.670;6.184;2023-06-10T05:28:28;2.35;;;1.45;;
50124;SDS011;36023;48.670;6.184;2023-06-10T05:30:54;5.78;;;1.70;;
50124;SDS011;36023;48.670;6.184;2023-06-10T05:33:20;2.70;;;1.70;;
50124;SDS011;36023;48.670;6.184;2023-06-10T05:35:45;2.42;;;1.50;;
50124;SDS011;36023;48.670;6.184;2023-06-10T05:38:11;4.70;;;2.13;;
50124;SDS011;36023;48.670;6.184;2023-06-10T05:40:37;2.60;;;1.40;;
50124;SDS011;36023;48.670;6.184;2023-06-10T05:43:02;1.92;;;1.27;;
50124;SDS011;36023;48.670;6.184;2023-06-10T05:45:28;3.35;;;1.38;;
50124;SDS011;36023;48.670;6.184;2023-06-10T05:47:53;3.08;;;2.08;;
50124;SDS011;36023;48.670;6.184;2023-06-10T05:50:19;2.58;;;1.55;;
50124;SDS011;36023;48.670;6.184;2023-06-10T05:52:44;4.80;;;1.65;;
50124;SDS011;36023;48.670;6.184;2023-06-10T05:55:10;2.20;;;1.58;;
50124;SDS011;36023;48.670;6.184;2023-06-10T05:57:38;2.58;;;1.55;;
50124;SDS011;36023;48.670;6.184;2023-06-10T06:00:06;4.45;;;1.83;;
50124;SDS011;36023;48.670;6.184;2023-06-10T06:02:38;2.35;;;1.70;;
50124;SDS011;36023;48.670;6.184;2023-06-10T06:05:04;1.95;;;1.45;;
50124;SDS011;36023;48.670;6.184;2023-06-10T06:07:30;2.10;;;1.33;;
50124;SDS011;36023;48.670;6.184;2023-06-10T06:09:56;3.63;;;1.60;;
50124;SDS011;36023;48.670;6.184;2023-06-10T06:12:21;2.03;;;1.17;;
50124;SDS011;36023;48.670;6.184;2023-06-10T06:14:47;1.95;;;1.25;;
50124;SDS011;36023;48.670;6.184;2023-06-10T06:17:14;1.73;;;1.23;;
50124;SDS011;36023;48.670;6.184;2023-06-10T06:19:40;2.13;;;1.23;;
50124;SDS011;36023;48.670;6.184;2023-06-10T06:22:08;1.75;;;1.13;;
50124;SDS011;36023;48.670;6.184;2023-06-10T06:24:35;4.07;;;1.85;;
50124;SDS011;36023;48.670;6.184;2023-06-10T06:27:00;5.43;;;1.50;;
50124;SDS011;36023;48.670;6.184;2023-06-10T06:29:26;2.10;;;1.50;;
50124;SDS011;36023;48.670;6.184;2023-06-10T06:31:52;2.00;;;1.38;;
50124;SDS011;36023;48.670;6.184;2023-06-10T06:34:17;1.55;;;1.20;;
50124;SDS011;36023;48.670;6.184;2023-06-10T06:36:44;2.35;;;1.45;;
50124;SDS011;36023;48.670;6.184;2023-06-10T06:39:09;1.40;;;1.15;;
50124;SDS011;36023;48.670;6.184;2023-06-10T06:41:36;1.75;;;1.20;;
50124;SDS011;36023;48.670;6.184;2023-06-10T06:44:02;3.63;;;1.25;;
50124;SDS011;36023;48.670;6.184;2023-06-10T06:46:36;2.17;;;1.00;;
50124;SDS011;36023;48.670;6.184;2023-06-10T06:49:02;3.13;;;1.50;;
50124;SDS011;36023;48.670;6.184;2023-06-10T06:51:27;2.72;;;1.77;;
50124;SDS011;36023;48.670;6.184;2023-06-10T06:53:54;2.90;;;1.48;;
50124;SDS011;36023;48.670;6.184;2023-06-10T06:56:23;2.65;;;1.33;;
50124;SDS011;36023;48.670;6.184;2023-06-10T06:58:49;2.78;;;1.70;;
50124;SDS011;36023;48.670;6.184;2023-06-10T07:01:16;2.65;;;1.70;;
50124;SDS011;36023;48.670;6.184;2023-06-10T07:03:42;3.17;;;1.33;;
50124;SDS011;36023;48.670;6.184;2023-06-10T07:06:08;1.92;;;1.27;;
50124;SDS011;36023;48.670;6.184;2023-06-10T07:08:33;2.88;;;1.58;;
50124;SDS011;36023;48.670;6.184;2023-06-10T07:10:59;2.55;;;1.50;;
50124;SDS011;36023;48.670;6.184;2023-06-10T07:13:24;3.75;;;1.40;;
50124;SDS011;36023;48.670;6.184;2023-06-10T07:15:50;2.20;;;1.30;;
50124;SDS011;36023;48.670;6.184;2023-06-10T07:18:16;2.40;;;1.30;;
50124;SDS011;36023;48.670;6.184;2023-06-10T07:20:43;3.70;;;1.70;;
50124;SDS011;36023;48.670;6.184;2023-06-10T07:23:10;5.72;;;1.70;;
50124;SDS011;36023;48.670;6.184;2023-06-10T07:25:37;1.55;;;0.98;;
50124;SDS011;36023;48.670;6.184;2023-06-10T07:28:02;3.63;;;1.80;;
50124;SDS011;36023;48.670;6.184;2023-06-10T07:30:28;2.80;;;1.33;;
50124;SDS011;36023;48.670;6.184;2023-06-10T07:32:56;2.08;;;1.52;;
50124;SDS011;36023;48.670;6.184;2023-06-10T07:35:22;1.95;;;1.40;;
50124;SDS011;36023;48.670;6.184;2023-06-10T07:37:48;1.85;;;1.20;;
50124;SDS011;36023;48.670;6.184;2023-06-10T07:40:14;2.00;;;1.10;;
50124;SDS011;36023;48.670;6.184;2023-06-10T07:42:40;1.80;;;1.20;;
50124;SDS011;36023;48.670;6.184;2023-06-10T07:45:07;2.78;;;1.48;;
50124;SDS011;36023;48.670;6.184;2023-06-10T07:47:33;1.92;;;1.35;;
50124;SDS011;36023;48.670;6.184;2023-06-10T07:49:59;1.58;;;1.20;;
50124;SDS011;36023;48.670;6.184;2023-06-10T07:52:25;2.83;;;1.67;;
50124;SDS011;36023;48.670;6.184;2023-06-10T07:54:51;1.83;;;1.05;;
50124;SDS011;36023;48.670;6.184;2023-06-10T07:57:18;5.45;;;0.95;;
50124;SDS011;36023;48.670;6.184;2023-06-10T07:59:44;4.25;;;1.15;;
50124;SDS011;36023;48.670;6.184;2023-06-10T08:02:11;2.30;;;1.30;;
50124;SDS011;36023;48.670;6.184;2023-06-10T08:04:37;1.45;;;1.15;;
50124;SDS011;36023;48.670;6.184;2023-06-10T08:07:03;2.83;;;1.45;;
50124;SDS011;36023;48.670;6.184;2023-06-10T08:09:29;2.13;;;1.02;;
50124;SDS011;36023;48.670;6.184;2023-06-10T08:11:54;2.42;;;1.15;;
50124;SDS011;36023;48.670;6.184;2023-06-10T08:14:23;4.38;;;1.23;;
50124;SDS011;36023;48.670;6.184;2023-06-10T08:16:49;1.98;;;1.23;;
50124;SDS011;36023;48.670;6.184;2023-06-10T08:19:15;2.67;;;1.27;;
50124;SDS011;36023;48.670;6.184;2023-06-10T08:21:42;1.90;;;1.20;;
50124;SDS011;36023;48.670;6.184;2023-06-10T08:24:09;4.45;;;1.55;;
50124;SDS011;36023;48.670;6.184;2023-06-10T08:26:37;2.00;;;1.20;;
50124;SDS011;36023;48.670;6.184;2023-06-10T08:29:04;1.92;;;1.02;;
50124;SDS011;36023;48.670;6.184;2023-06-10T08:31:30;3.13;;;0.90;;
50124;SDS011;36023;48.670;6.184;2023-06-10T08:33:56;1.05;;;0.90;;
50124;SDS011;36023;48.670;6.184;2023-06-10T08:36:23;1.48;;;1.13;;
50124;SDS011;36023;48.670;6.184;2023-06-10T08:38:49;2.47;;;1.10;;
50124;SDS011;36023;48.670;6.184;2023-06-10T08:41:16;3.92;;;1.15;;
50124;SDS011;36023;48.670;6.184;2023-06-10T08:46:55;2.85;;;1.20;;
50124;SDS011;36023;48.670;6.184;2023-06-10T08:49:23;2.38;;;1.13;;
50124;SDS011;36023;48.670;6.184;2023-06-10T08:51:55;2.58;;;1.30;;
50124;SDS011;36023;48.670;6.184;2023-06-10T08:54:25;2.03;;;1.05;;
50124;SDS011;36023;48.670;6.184;2023-06-10T08:56:52;1.55;;;1.10;;
50124;SDS011;36023;48.670;6.184;2023-06-10T08:59:20;2.15;;;1.00;;
50124;SDS011;36023;48.670;6.184;2023-06-10T09:01:51;1.50;;;0.80;;
50124;SDS011;36023;48.670;6.184;2023-06-10T09:04:18;2.85;;;1.40;;
50124;SDS011;36023;48.670;6.184;2023-06-10T09:06:44;4.38;;;1.10;;
50124;SDS011;36023;48.670;6.184;2023-06-10T09:09:12;1.73;;;1.00;;
50124;SDS011;36023;48.670;6.184;2023-06-10T09:11:40;2.33;;;1.17;;
50124;SDS011;36023;48.670;6.184;2023-06-10T09:14:07;2.90;;;1.20;;
50124;SDS011;36023;48.670;6.184;2023-06-10T09:16:34;2.17;;;1.42;;
50124;SDS011;36023;48.670;6.184;2023-06-10T09:18:59;2.75;;;0.85;;
50124;SDS011;36023;48.670;6.184;2023-06-10T09:21:25;2.08;;;1.23;;
50124;SDS011;36023;48.670;6.184;2023-06-10T09:23:51;1.20;;;0.80;;
50124;SDS011;36023;48.670;6.184;2023-06-10T09:26:18;1.00;;;0.70;;
50124;SDS011;36023;48.670;6.184;2023-06-10T09:28:50;2.00;;;1.13;;
50124;SDS011;36023;48.670;6.184;2023-06-10T09:31:17;1.38;;;1.08;;
50124;SDS011;36023;48.670;6.184;2023-06-10T09:33:46;2.75;;;0.80;;
50124;SDS011;36023;48.670;6.184;2023-06-10T09:36:21;1.30;;;1.00;;
50124;SDS011;36023;48.670;6.184;2023-06-10T09:38:49;1.58;;;0.88;;
50124;SDS011;36023;48.670;6.184;2023-06-10T09:41:16;2.10;;;0.85;;
50124;SDS011;36023;48.670;6.184;2023-06-10T09:43:44;1.15;;;0.75;;
50124;SDS011;36023;48.670;6.184;2023-06-10T09:46:15;1.73;;;1.00;;
50124;SDS011;36023;48.670;6.184;2023-06-10T09:48:44;2.20;;;1.17;;
50124;SDS011;36023;48.670;6.184;2023-06-10T09:51:11;2.75;;;1.10;;
50124;SDS011;36023;48.670;6.184;2023-06-10T09:53:38;1.10;;;0.80;;
50124;SDS011;36023;48.670;6.184;2023-06-10T09:56:04;0.80;;;0.65;;
50124;SDS011;36023;48.670;6.184;2023-06-10T09:58:37;2.10;;;1.02;;
50124;SDS011;36023;48.670;6.184;2023-06-10T10:01:09;1.95;;;0.90;;
50124;SDS011;36023;48.670;6.184;2023-06-10T10:03:48;1.42;;;0.90;;
50124;SDS011;36023;48.670;6.184;2023-06-10T10:06:16;1.20;;;0.70;;
50124;SDS011;36023;48.670;6.184;2023-06-10T10:08:45;1.20;;;0.80;;
50124;SDS011;36023;48.670;6.184;2023-06-10T10:11:12;1.30;;;0.90;;
50124;SDS011;36023;48.670;6.184;2023-06-10T10:13:41;1.45;;;0.85;;
50124;SDS011;36023;48.670;6.184;2023-06-10T10:16:11;1.35;;;0.98;;
50124;SDS011;36023;48.670;6.184;2023-06-10T10:18:41;1.35;;;0.88;;
50124;SDS011;36023;48.670;6.184;2023-06-10T10:21:13;2.33;;;1.15;;
50124;SDS011;36023;48.670;6.184;2023-06-10T10:26:43;2.80;;;0.95;;
50124;SDS011;36023;48.670;6.184;2023-06-10T10:29:24;1.17;;;0.90;;
50124;SDS011;36023;48.670;6.184;2023-06-10T10:31:55;1.08;;;0.85;;
50124;SDS011;36023;48.670;6.184;2023-06-10T10:34:30;2.35;;;1.00;;
50124;SDS011;36023;48.670;6.184;2023-06-10T10:36:58;2.03;;;0.82;;
50124;SDS011;36023;48.670;6.184;2023-06-10T10:39:24;1.27;;;0.60;;
50124;SDS011;36023;48.670;6.184;2023-06-10T10:41:52;2.35;;;0.80;;
50124;SDS011;36023;48.670;6.184;2023-06-10T10:44:18;1.42;;;0.90;;
50124;SDS011;36023;48.670;6.184;2023-06-10T10:46:48;1.60;;;1.00;;
50124;SDS011;36023;48.670;6.184;2023-06-10T10:49:15;2.53;;;0.77;;
50124;SDS011;36023;48.670;6.184;2023-06-10T10:52:02;4.15;;;0.95;;
50124;SDS011;36023;48.670;6.184;2023-06-10T10:54:31;1.50;;;0.90;;
50124;SDS011;36023;48.670;6.184;2023-06-10T10:57:11;1.88;;;0.90;;
50124;SDS011;36023;48.670;6.184;2023-06-10T10:59:56;2.92;;;1.10;;
50124;SDS011;36023;48.670;6.184;2023-06-10T11:04:56;3.22;;;1.02;;
50124;SDS011;36023;48.670;6.184;2023-06-10T11:07:24;1.42;;;0.88;;
50124;SDS011;36023;48.670;6.184;2023-06-10T11:09:57;1.98;;;1.05;;
50124;SDS011;36023;48.670;6.184;2023-06-10T11:15:17;2.83;;;1.38;;
50124;SDS011;36023;48.670;6.184;2023-06-10T11:28:43;2.40;;;1.20;;
50124;SDS011;36023;48.670;6.184;2023-06-10T11:31:31;1.92;;;0.98;;
50124;SDS011;36023;48.670;6.184;2023-06-10T11:33:59;1.83;;;0.70;;
50124;SDS011;36023;48.670;6.184;2023-06-10T11:36:25;2.08;;;0.77;;
50124;SDS011;36023;48.670;6.184;2023-06-10T11:38:53;2.53;;;0.70;;
50124;SDS011;36023;48.670;6.184;2023-06-10T11:41:23;1.83;;;0.98;;
50124;SDS011;36023;48.670;6.184;2023-06-10T11:43:51;1.48;;;0.77;;
50124;SDS011;36023;48.670;6.184;2023-06-10T11:46:18;6.15;;;1.00;;
50124;SDS011;36023;48.670;6.184;2023-06-10T11:48:54;2.10;;;0.90;;
50124;SDS011;36023;48.670;6.184;2023-06-10T11:51:20;1.98;;;1.27;;
50124;SDS011;36023;48.670;6.184;2023-06-10T11:53:49;1.35;;;0.88;;
50124;SDS011;36023;48.670;6.184;2023-06-10T11:56:28;1.17;;;0.68;;
50124;SDS011;36023;48.670;6.184;2023-06-10T11:58:56;1.95;;;1.30;;
50124;SDS011;36023;48.670;6.184;2023-06-10T12:01:25;1.10;;;0.70;;
50124;SDS011;36023;48.670;6.184;2023-06-10T12:03:59;1.38;;;0.68;;
50124;SDS011;36023;48.670;6.184;2023-06-10T12:06:26;1.60;;;0.90;;
50124;SDS011;36023;48.670;6.184;2023-06-10T12:08:53;0.90;;;0.60;;
50124;SDS011;36023;48.670;6.184;2023-06-10T12:11:20;1.77;;;0.80;;
50124;SDS011;36023;48.670;6.184;2023-06-10T12:13:46;1.67;;;0.75;;
50124;SDS011;36023;48.670;6.184;2023-06-10T12:16:14;1.17;;;0.60;;
50124;SDS011;36023;48.670;6.184;2023-06-10T12:18:46;1.30;;;0.93;;
50124;SDS011;36023;48.670;6.184;2023-06-10T12:21:24;1.27;;;0.70;;
50124;SDS011;36023;48.670;6.184;2023-06-10T12:26:41;0.90;;;0.57;;
50124;SDS011;36023;48.670;6.184;2023-06-10T12:32:01;1.20;;;0.77;;
50124;SDS011;36023;48.670;6.184;2023-06-10T12:34:30;3.00;;;1.02;;
50124;SDS011;36023;48.670;6.184;2023-06-10T12:36:59;1.55;;;0.70;;
50124;SDS011;36023;48.670;6.184;2023-06-10T12:39:26;1.95;;;0.70;;
50124;SDS011;36023;48.670;6.184;2023-06-10T12:41:52;1.52;;;0.60;;
50124;SDS011;36023;48.670;6.184;2023-06-10T12:44:27;1.48;;;0.60;;
50124;SDS011;36023;48.670;6.184;2023-06-10T12:49:20;1.95;;;0.73;;
50124;SDS011;36023;48.670;6.184;2023-06-10T12:51:47;1.67;;;0.57;;
50124;SDS011;36023;48.670;6.184;2023-06-10T12:54:12;1.23;;;0.60;;
50124;SDS011;36023;48.670;6.184;2023-06-10T12:56:38;0.98;;;0.60;;
50124;SDS011;36023;48.670;6.184;2023-06-10T12:59:04;0.75;;;0.52;;
50124;SDS011;36023;48.670;6.184;2023-06-10T13:01:30;0.90;;;0.50;;
50124;SDS011;36023;48.670;6.184;2023-06-10T13:03:56;1.00;;;0.60;;
50124;SDS011;36023;48.670;6.184;2023-06-10T13:06:22;0.68;;;0.50;;
50124;SDS011;36023;48.670;6.184;2023-06-10T13:08:49;0.93;;;0.50;;
50124;SDS011;36023;48.670;6.184;2023-06-10T13:11:16;1.17;;;0.70;;
50124;SDS011;36023;48.670;6.184;2023-06-10T13:13:42;0.63;;;0.50;;
50124;SDS011;36023;48.670;6.184;2023-06-10T13:16:08;0.93;;;0.65;;
50124;SDS011;36023;48.670;6.184;2023-06-10T13:18:34;2.85;;;0.65;;
50124;SDS011;36023;48.670;6.184;2023-06-10T13:21:03;1.17;;;0.70;;
50124;SDS011;36023;48.670;6.184;2023-06-10T13:23:29;1.38;;;1.25;;
50124;SDS011;36023;48.670;6.184;2023-06-10T13:25:57;2.58;;;0.80;;
50124;SDS011;36023;48.670;6.184;2023-06-10T13:28:23;2.03;;;0.90;;
50124;SDS011;36023;48.670;6.184;2023-06-10T13:30:49;4.75;;;1.23;;
50124;SDS011;36023;48.670;6.184;2023-06-10T13:33:16;2.88;;;1.02;;
50124;SDS011;36023;48.670;6.184;2023-06-10T13:35:41;1.50;;;0.70;;
50124;SDS011;36023;48.670;6.184;2023-06-10T13:38:07;1.98;;;1.10;;
50124;SDS011;36023;48.670;6.184;2023-06-10T13:40:33;1.35;;;0.95;;
50124;SDS011;36023;48.670;6.184;2023-06-10T13:42:59;4.43;;;2.00;;
50124;SDS011;36023;48.670;6.184;2023-06-10T13:45:25;2.53;;;0.80;;
50124;SDS011;36023;48.670;6.184;2023-06-10T13:47:51;1.48;;;0.65;;
50124;SDS011;36023;48.670;6.184;2023-06-10T13:50:17;1.50;;;1.00;;
50124;SDS011;36023;48.670;6.184;2023-06-10T13:52:42;0.82;;;0.50;;
50124;SDS011;36023;48.670;6.184;2023-06-10T13:55:08;2.22;;;0.80;;
50124;SDS011;36023;48.670;6.184;2023-06-10T13:57:40;3.38;;;0.88;;
50124;SDS011;36023;48.670;6.184;2023-06-10T14:00:07;1.00;;;0.60;;
50124;SDS011;36023;48.670;6.184;2023-06-10T14:02:35;2.33;;;0.52;;
50124;SDS011;36023;48.670;6.184;2023-06-10T14:05:01;0.70;;;0.60;;
50124;SDS011;36023;48.670;6.184;2023-06-10T14:07:26;1.42;;;0.80;;
50124;SDS011;36023;48.670;6.184;2023-06-10T14:09:53;1.55;;;0.60;;
50124;SDS011;36023;48.670;6.184;2023-06-10T14:12:19;1.08;;;0.47;;
50124;SDS011;36023;48.670;6.184;2023-06-10T14:14:44;1.45;;;0.82;;
50124;SDS011;36023;48.670;6.184;2023-06-10T14:17:10;1.35;;;0.77;;
50124;SDS011;36023;48.670;6.184;2023-06-10T14:19:35;3.05;;;0.80;;
50124;SDS011;36023;48.670;6.184;2023-06-10T14:22:02;0.80;;;0.70;;
50124;SDS011;36023;48.670;6.184;2023-06-10T14:24:28;0.90;;;0.43;;
50124;SDS011;36023;48.670;6.184;2023-06-10T14:26:55;1.70;;;0.63;;
50124;SDS011;36023;48.670;6.184;2023-06-10T14:29:23;1.13;;;0.65;;
50124;SDS011;36023;48.670;6.184;2023-06-10T14:31:49;0.90;;;0.57;;
50124;SDS011;36023;48.670;6.184;2023-06-10T14:34:16;0.93;;;0.70;;
50124;SDS011;36023;48.670;6.184;2023-06-10T14:36:41;1.33;;;0.47;;
50124;SDS011;36023;48.670;6.184;2023-06-10T14:39:07;1.58;;;0.85;;
50124;SDS011;36023;48.670;6.184;2023-06-10T14:41:33;0.82;;;0.52;;
50124;SDS011;36023;48.670;6.184;2023-06-10T14:44:01;1.52;;;0.75;;
50124;SDS011;36023;48.670;6.184;2023-06-10T14:46:28;1.13;;;0.77;;
50124;SDS011;36023;48.670;6.184;2023-06-10T14:48:53;2.00;;;0.73;;
50124;SDS011;36023;48.670;6.184;2023-06-10T14:51:19;0.85;;;0.50;;
50124;SDS011;36023;48.670;6.184;2023-06-10T14:53:46;1.38;;;0.85;;
50124;SDS011;36023;48.670;6.184;2023-06-10T14:56:12;1.23;;;0.60;;
50124;SDS011;36023;48.670;6.184;2023-06-10T14:58:37;0.77;;;0.50;;
50124;SDS011;36023;48.670;6.184;2023-06-10T15:01:03;1.33;;;0.47;;
50124;SDS011;36023;48.670;6.184;2023-06-10T15:03:29;1.70;;;0.57;;
50124;SDS011;36023;48.670;6.184;2023-06-10T15:05:55;0.82;;;0.50;;
50124;SDS011;36023;48.670;6.184;2023-06-10T15:08:20;0.70;;;0.50;;
50124;SDS011;36023;48.670;6.184;2023-06-10T15:10:46;1.75;;;0.93;;
50124;SDS011;36023;48.670;6.184;2023-06-10T15:13:14;0.70;;;0.50;;
50124;SDS011;36023;48.670;6.184;2023-06-10T15:15:39;0.82;;;0.50;;
50124;SDS011;36023;48.670;6.184;2023-06-10T15:18:06;1.23;;;0.82;;
50124;SDS011;36023;48.670;6.184;2023-06-10T15:20:31;1.33;;;0.70;;
50124;SDS011;36023;48.670;6.184;2023-06-10T15:22:57;1.10;;;0.60;;
50124;SDS011;36023;48.670;6.184;2023-06-10T15:25:22;1.73;;;0.68;;
50124;SDS011;36023;48.670;6.184;2023-06-10T15:27:50;1.85;;;1.00;;